createdAt,value
2018-06-20T00:01:33.541Z,3.77
2018-06-20T00:04:01.831Z,4.10
2018-06-20T00:06:31.367Z,3.80
2018-06-20T00:08:59.732Z,4.03
2018-06-20T00:11:28.035Z,4.00
2018-06-20T00:14:00.794Z,4.13
2018-06-20T00:16:29.027Z,3.90
2018-06-20T00:18:57.287Z,4.00
2018-06-20T00:21:25.535Z,4.47
2018-06-20T00:23:53.789Z,4.57
2018-06-20T00:26:22.017Z,4.63
2018-06-20T00:28:50.237Z,4.57
2018-06-20T00:31:19.448Z,3.80
2018-06-20T00:33:47.704Z,3.80
2018-06-20T00:36:15.948Z,4.07
2018-06-20T00:38:44.274Z,4.03
2018-06-20T00:41:12.572Z,4.23
2018-06-20T00:43:40.823Z,4.20
2018-06-20T00:46:09.084Z,4.70
2018-06-20T00:48:37.315Z,4.10
2018-06-20T00:51:05.560Z,4.53
2018-06-20T00:53:33.814Z,4.72
2018-06-20T00:56:13.465Z,4.40
2018-06-20T00:58:41.679Z,3.90
2018-06-20T01:01:09.924Z,4.00
2018-06-20T01:03:39.208Z,3.93
2018-06-20T01:06:07.498Z,3.97
2018-06-20T01:08:35.755Z,4.42
2018-06-20T01:11:03.982Z,3.93
2018-06-20T01:13:32.451Z,3.50
2018-06-20T01:16:00.705Z,3.40
2018-06-20T01:18:28.984Z,3.83
2018-06-20T01:20:57.247Z,3.45
2018-06-20T01:23:25.555Z,3.70
2018-06-20T01:25:53.830Z,3.87
2018-06-20T01:28:22.487Z,4.30
2018-06-20T01:30:52.071Z,4.10
2018-06-20T01:33:21.108Z,3.73
2018-06-20T01:35:49.379Z,3.80
2018-06-20T01:38:17.619Z,3.57
2018-06-20T01:40:45.606Z,3.85
2018-06-20T01:43:13.897Z,3.77
2018-06-20T01:45:42.115Z,4.30
2018-06-20T01:48:10.399Z,4.22
2018-06-20T01:50:38.643Z,4.50
2018-06-20T01:53:07.239Z,4.10
2018-06-20T01:55:35.567Z,3.37
2018-06-20T01:58:03.769Z,3.60
2018-06-20T02:00:32.078Z,3.67
2018-06-20T02:03:00.306Z,4.17
2018-06-20T02:05:28.829Z,4.28
2018-06-20T02:07:57.092Z,3.83
2018-06-20T02:10:26.074Z,4.20
2018-06-20T02:12:54.387Z,3.90
2018-06-20T02:15:22.587Z,4.12
2018-06-20T02:17:50.900Z,4.17
2018-06-20T02:20:20.240Z,4.10
2018-06-20T02:22:50.432Z,4.13
2018-06-20T02:25:20.263Z,4.00
2018-06-20T02:27:48.485Z,4.17
2018-06-20T02:30:16.724Z,4.83
2018-06-20T02:32:44.989Z,4.20
2018-06-20T02:35:13.276Z,4.40
2018-06-20T02:37:41.616Z,4.53
2018-06-20T02:40:09.897Z,4.67
2018-06-20T02:42:38.192Z,4.67
2018-06-20T02:45:06.444Z,4.73
2018-06-20T02:47:41.617Z,4.17
2018-06-20T02:50:10.691Z,4.80
2018-06-20T02:52:39.184Z,4.33
2018-06-20T02:55:07.433Z,5.67
2018-06-20T02:57:35.679Z,5.03
2018-06-20T03:00:03.982Z,5.00
2018-06-20T03:02:32.240Z,5.03
2018-06-20T03:05:00.444Z,5.35
2018-06-20T03:07:28.707Z,4.83
2018-06-20T03:09:56.993Z,4.97
2018-06-20T03:12:25.281Z,5.40
2018-06-20T03:14:53.481Z,5.07
2018-06-20T03:17:21.824Z,5.47
2018-06-20T03:19:50.194Z,5.12
2018-06-20T03:22:18.439Z,4.80
2018-06-20T03:24:47.732Z,5.30
2018-06-20T03:27:16.014Z,4.40
2018-06-20T03:29:44.200Z,4.53
2018-06-20T03:32:12.485Z,5.22
2018-06-20T03:34:40.768Z,4.72
2018-06-20T03:37:09.006Z,5.03
2018-06-20T03:39:37.299Z,4.90
2018-06-20T03:42:05.552Z,4.37
2018-06-20T03:44:33.821Z,5.12
2018-06-20T03:47:02.204Z,4.42
2018-06-20T03:49:30.450Z,4.90
2018-06-20T03:51:58.751Z,5.00
2018-06-20T03:54:27.007Z,4.60
2018-06-20T03:56:55.261Z,5.37
2018-06-20T03:59:23.668Z,4.65
2018-06-20T04:01:52.022Z,4.67
2018-06-20T04:04:20.326Z,5.25
2018-06-20T04:06:49.235Z,4.58
2018-06-20T04:09:17.527Z,4.70
2018-06-20T04:11:45.772Z,4.47
2018-06-20T04:14:13.963Z,4.65
2018-06-20T04:16:42.223Z,4.30
2018-06-20T04:19:10.533Z,4.12
2018-06-20T04:21:38.791Z,4.40
2018-06-20T04:24:07.071Z,4.20
2018-06-20T04:26:35.316Z,3.83
2018-06-20T04:29:03.565Z,4.58
2018-06-20T04:31:31.785Z,4.67
2018-06-20T04:34:00.069Z,4.40
2018-06-20T04:36:28.311Z,5.00
2018-06-20T04:38:56.551Z,4.45
2018-06-20T04:41:24.840Z,4.75
2018-06-20T04:43:53.576Z,4.55
2018-06-20T04:46:21.894Z,4.90
2018-06-20T04:48:50.394Z,4.08
2018-06-20T04:51:18.603Z,4.10
2018-06-20T04:53:46.896Z,4.62
2018-06-20T04:56:15.194Z,4.55
2018-06-20T04:58:43.377Z,5.00
2018-06-20T05:01:11.915Z,5.50
2018-06-20T05:03:40.335Z,5.67
2018-06-20T05:06:08.740Z,5.05
2018-06-20T05:08:37.074Z,5.60
2018-06-20T05:11:08.931Z,4.90
2018-06-20T05:13:37.584Z,5.80
2018-06-20T05:16:05.900Z,5.35
2018-06-20T05:18:34.192Z,4.90
2018-06-20T05:21:02.437Z,5.78
2018-06-20T05:23:30.695Z,5.42
2018-06-20T05:25:58.980Z,5.33
2018-06-20T05:28:27.512Z,4.95
2018-06-20T05:30:55.795Z,5.00
2018-06-20T05:33:24.025Z,4.70
2018-06-20T05:35:52.288Z,5.28
2018-06-20T05:38:20.521Z,5.08
2018-06-20T05:40:48.769Z,5.12
2018-06-20T05:43:17.018Z,5.10
2018-06-20T05:45:45.279Z,4.87
2018-06-20T05:48:13.616Z,4.87
2018-06-20T05:50:41.863Z,5.10
2018-06-20T05:53:10.249Z,4.95
2018-06-20T05:55:38.499Z,5.00
2018-06-20T05:58:06.788Z,4.45
2018-06-20T06:00:35.030Z,4.05
2018-06-20T06:03:03.268Z,4.10
2018-06-20T06:05:31.631Z,3.67
2018-06-20T06:08:05.505Z,4.03
2018-06-20T06:10:33.757Z,3.62
2018-06-20T06:13:02.107Z,3.65
2018-06-20T06:15:30.835Z,3.62
2018-06-20T06:17:59.088Z,3.20
2018-06-20T06:20:27.952Z,3.60
2018-06-20T06:22:55.948Z,3.35
2018-06-20T06:25:24.349Z,3.75
2018-06-20T06:27:52.603Z,3.42
2018-06-20T06:30:20.947Z,4.10
2018-06-20T06:32:49.256Z,3.92
2018-06-20T06:35:17.444Z,3.60
2018-06-20T06:37:45.785Z,3.83
2018-06-20T06:40:13.778Z,2.95
2018-06-20T06:42:42.053Z,3.80
2018-06-20T06:45:10.297Z,3.62
2018-06-20T06:47:38.527Z,3.58
2018-06-20T06:50:06.939Z,3.50
2018-06-20T06:52:35.011Z,2.83
2018-06-20T06:55:03.337Z,2.90
2018-06-20T06:57:31.547Z,3.50
2018-06-20T06:59:59.847Z,3.25
2018-06-20T07:02:28.162Z,3.20
2018-06-20T07:04:56.609Z,3.22
2018-06-20T07:07:24.856Z,3.25
2018-06-20T07:09:53.112Z,2.80
2018-06-20T07:12:21.397Z,2.87
2018-06-20T07:14:49.632Z,2.62
2018-06-20T07:17:17.985Z,3.60
2018-06-20T07:19:46.193Z,3.40
2018-06-20T07:22:14.947Z,2.50
2018-06-20T07:24:43.917Z,2.85
2018-06-20T07:27:12.179Z,2.80
2018-06-20T07:29:40.705Z,2.47
2018-06-20T07:32:09.336Z,2.30
2018-06-20T07:34:37.543Z,2.72
2018-06-20T07:37:06.108Z,2.30
2018-06-20T07:39:34.370Z,2.52
2018-06-20T07:42:02.614Z,2.80
2018-06-20T07:44:31.131Z,2.00
2018-06-20T07:47:00.136Z,1.87
2018-06-20T07:49:28.767Z,1.95
2018-06-20T07:51:57.038Z,2.12
2018-06-20T07:54:25.251Z,2.25
2018-06-20T07:56:53.647Z,1.92
2018-06-20T07:59:21.975Z,1.90
2018-06-20T08:02:07.184Z,2.10
2018-06-20T08:04:40.751Z,1.50
2018-06-20T08:07:14.467Z,1.57
2018-06-20T08:09:47.988Z,1.90
2018-06-20T08:12:21.612Z,1.60
2018-06-20T08:15:57.787Z,1.70
2018-06-20T08:18:31.380Z,1.60
2018-06-20T08:20:59.909Z,2.45
2018-06-20T08:23:28.589Z,2.50
2018-06-20T08:25:56.876Z,1.90
2018-06-20T08:28:25.236Z,2.05
2018-06-20T08:30:53.490Z,1.85
2018-06-20T08:33:21.803Z,1.77
2018-06-20T08:35:50.291Z,1.80
2018-06-20T08:38:18.576Z,1.70
2018-06-20T08:40:47.261Z,2.05
2018-06-20T08:43:15.480Z,2.10
2018-06-20T08:45:43.793Z,2.05
2018-06-20T08:48:12.071Z,1.90
2018-06-20T08:50:40.447Z,1.60
2018-06-20T08:53:08.793Z,1.30
2018-06-20T08:55:37.726Z,1.50
2018-06-20T08:58:05.962Z,1.20
2018-06-20T09:00:39.470Z,1.57
2018-06-20T09:03:08.060Z,1.90
2018-06-20T09:05:41.714Z,1.65
2018-06-20T09:08:15.445Z,2.00
2018-06-20T09:10:49.590Z,1.77
2018-06-20T09:13:23.135Z,2.02
2018-06-20T09:15:58.295Z,2.00
2018-06-20T09:18:31.865Z,2.15
2018-06-20T09:21:00.093Z,1.95
2018-06-20T09:23:28.348Z,1.87
2018-06-20T09:25:56.653Z,1.72
2018-06-20T09:28:25.422Z,1.87
2018-06-20T09:30:53.658Z,1.75
2018-06-20T09:33:22.141Z,2.02
2018-06-20T09:35:50.447Z,1.80
2018-06-20T09:38:18.700Z,1.92
2018-06-20T09:40:46.926Z,1.92
2018-06-20T09:43:15.159Z,1.90
2018-06-20T09:45:43.502Z,1.85
2018-06-20T09:48:11.792Z,1.70
2018-06-20T09:50:46.411Z,1.87
2018-06-20T09:53:14.671Z,2.30
2018-06-20T09:55:42.988Z,1.77
2018-06-20T09:58:11.252Z,1.70
2018-06-20T10:00:44.884Z,1.70
2018-06-20T10:06:25.689Z,2.08
2018-06-20T10:08:59.296Z,2.47
2018-06-20T10:11:33.072Z,1.62
2018-06-20T10:14:02.012Z,1.87
2018-06-20T10:16:30.941Z,1.82
2018-06-20T10:18:59.853Z,2.00
2018-06-20T10:21:28.162Z,1.87
2018-06-20T10:23:56.350Z,2.05
2018-06-20T10:26:25.569Z,2.20
2018-06-20T10:28:54.255Z,2.25
2018-06-20T10:31:22.618Z,1.77
2018-06-20T10:33:50.844Z,1.62
2018-06-20T10:36:19.484Z,1.87
2018-06-20T10:38:48.182Z,1.90
2018-06-20T10:41:16.436Z,1.90
2018-06-20T10:43:44.691Z,1.60
2018-06-20T10:46:18.490Z,1.77
2018-06-20T10:48:46.940Z,1.90
2018-06-20T10:51:15.431Z,1.92
2018-06-20T10:53:43.671Z,1.67
2018-06-20T10:56:11.931Z,1.75
2018-06-20T10:58:45.699Z,1.70
2018-06-20T11:01:19.254Z,2.05
2018-06-20T11:03:53.015Z,1.77
2018-06-20T11:06:26.791Z,2.10
2018-06-20T11:09:00.479Z,1.87
2018-06-20T11:11:34.142Z,2.00
2018-06-20T11:14:02.450Z,1.80
2018-06-20T11:16:30.681Z,1.80
2018-06-20T11:18:58.947Z,1.60
2018-06-20T11:21:27.428Z,1.75
2018-06-20T11:23:55.634Z,1.72
2018-06-20T11:26:24.136Z,2.20
2018-06-20T11:28:52.952Z,1.80
2018-06-20T11:31:21.263Z,1.57
2018-06-20T11:33:49.496Z,1.55
2018-06-20T11:36:17.914Z,1.77
2018-06-20T11:38:46.233Z,1.60
2018-06-20T11:41:14.548Z,1.35
2018-06-20T11:43:42.887Z,1.82
2018-06-20T11:46:16.523Z,1.75
2018-06-20T11:48:44.832Z,2.15
2018-06-20T11:51:13.175Z,1.92
2018-06-20T11:53:41.803Z,1.95
2018-06-20T11:56:10.089Z,1.62
2018-06-20T11:58:43.871Z,1.50
2018-06-20T12:01:17.472Z,1.72
2018-06-20T12:03:51.312Z,1.50
2018-06-20T12:06:25.032Z,1.50
2018-06-20T12:08:58.770Z,1.30
2018-06-20T12:11:32.619Z,1.52
2018-06-20T12:14:06.343Z,1.60
2018-06-20T12:16:36.058Z,1.35
2018-06-20T12:19:09.771Z,1.12
2018-06-20T12:21:43.487Z,1.25
2018-06-20T12:24:17.503Z,1.60
2018-06-20T12:26:51.180Z,1.60
2018-06-20T12:29:24.963Z,1.25
2018-06-20T12:31:58.635Z,1.40
2018-06-20T12:34:33.004Z,1.47
2018-06-20T12:37:06.611Z,1.85
2018-06-20T12:39:34.111Z,1.32
2018-06-20T12:42:07.710Z,1.30
2018-06-20T12:45:11.651Z,1.40
2018-06-20T12:47:45.314Z,1.60
2018-06-20T12:50:16.875Z,1.65
2018-06-20T12:52:45.232Z,1.65
2018-06-20T12:55:14.209Z,1.72
2018-06-20T12:57:42.781Z,1.35
2018-06-20T13:00:11.185Z,1.50
2018-06-20T13:02:39.434Z,2.10
2018-06-20T13:05:07.651Z,1.55
2018-06-20T13:07:36.336Z,1.67
2018-06-20T13:10:04.888Z,1.40
2018-06-20T13:12:33.128Z,1.25
2018-06-20T13:15:01.518Z,1.40
2018-06-20T13:17:29.995Z,1.42
2018-06-20T13:19:58.254Z,1.40
2018-06-20T13:22:27.347Z,1.35
2018-06-20T13:24:55.571Z,1.70
2018-06-20T13:27:29.181Z,1.35
2018-06-20T13:30:02.872Z,1.50
2018-06-20T13:32:36.599Z,1.50
2018-06-20T13:35:10.228Z,1.30
2018-06-20T13:37:43.825Z,1.17
2018-06-20T13:40:17.420Z,1.52
2018-06-20T13:42:51.011Z,1.25
2018-06-20T13:45:24.829Z,1.35
2018-06-20T13:48:02.485Z,1.32
2018-06-20T13:50:31.476Z,1.22
2018-06-20T13:53:00.127Z,1.20
2018-06-20T13:55:28.204Z,1.20
2018-06-20T13:57:56.699Z,1.42
2018-06-20T14:00:26.289Z,1.15
2018-06-20T14:02:57.067Z,1.00
2018-06-20T14:05:25.328Z,1.00
2018-06-20T14:07:53.587Z,1.20
2018-06-20T14:10:22.076Z,2.10
2018-06-20T14:12:50.336Z,1.50
2018-06-20T14:15:21.719Z,1.15
2018-06-20T14:17:49.949Z,1.20
2018-06-20T14:20:23.693Z,1.37
2018-06-20T14:22:51.943Z,1.50
2018-06-20T14:25:20.249Z,1.30
2018-06-20T14:27:48.455Z,1.47
2018-06-20T14:30:22.125Z,1.50
2018-06-20T14:32:55.676Z,1.10
2018-06-20T14:35:29.939Z,1.32
2018-06-20T14:38:03.623Z,1.32
2018-06-20T14:40:37.518Z,1.35
2018-06-20T14:43:10.960Z,1.50
2018-06-20T14:45:44.666Z,1.62
2018-06-20T14:48:12.883Z,1.35
2018-06-20T14:50:41.115Z,1.45
2018-06-20T14:53:09.359Z,1.72
2018-06-20T14:55:37.616Z,1.40
2018-06-20T14:58:05.915Z,1.98
2018-06-20T15:00:34.497Z,1.12
2018-06-20T15:03:03.007Z,1.45
2018-06-20T15:05:31.752Z,1.15
2018-06-20T15:08:00.421Z,1.95
2018-06-20T15:10:28.887Z,1.27
2018-06-20T15:12:57.159Z,1.75
2018-06-20T15:15:25.381Z,1.25
2018-06-20T15:17:54.388Z,1.62
2018-06-20T15:20:22.634Z,1.55
2018-06-20T15:22:50.894Z,1.50
2018-06-20T15:25:25.143Z,1.57
2018-06-20T15:27:58.929Z,1.55
2018-06-20T15:30:33.344Z,1.35
2018-06-20T15:33:06.960Z,1.60
2018-06-20T15:36:43.573Z,1.60
2018-06-20T15:39:11.808Z,1.80
2018-06-20T15:41:39.965Z,1.60
2018-06-20T15:44:08.192Z,1.50
2018-06-20T15:46:36.843Z,1.40
2018-06-20T15:49:04.877Z,1.47
2018-06-20T15:51:33.111Z,1.60
2018-06-20T15:54:01.324Z,1.95
2018-06-20T15:56:29.577Z,1.90
2018-06-20T15:58:57.818Z,1.98
2018-06-20T16:01:25.813Z,1.90
2018-06-20T16:03:54.031Z,1.60
2018-06-20T16:06:22.239Z,1.55
2018-06-20T16:08:56.042Z,2.12
2018-06-20T16:11:25.378Z,1.80
2018-06-20T16:13:53.659Z,1.60
2018-06-20T16:16:22.037Z,1.85
2018-06-20T16:18:55.611Z,1.70
2018-06-20T16:21:29.720Z,1.80
2018-06-20T16:24:03.444Z,1.50
2018-06-20T16:26:37.168Z,1.80
2018-06-20T16:29:10.879Z,2.00
2018-06-20T16:31:39.120Z,1.65
2018-06-20T16:34:07.398Z,1.52
2018-06-20T16:36:35.813Z,1.87
2018-06-20T16:39:05.820Z,1.82
2018-06-20T16:41:34.176Z,1.80
2018-06-20T16:44:02.409Z,1.75
2018-06-20T16:46:30.648Z,2.10
2018-06-20T16:48:59.084Z,1.85
2018-06-20T16:51:27.395Z,2.42
2018-06-20T16:53:55.765Z,3.75
2018-06-20T16:56:24.238Z,2.30
2018-06-20T16:58:52.505Z,2.10
2018-06-20T17:01:26.005Z,2.37
2018-06-20T17:03:54.199Z,1.50
2018-06-20T17:06:22.591Z,2.15
2018-06-20T17:08:50.811Z,1.85
2018-06-20T17:11:18.836Z,1.57
2018-06-20T17:13:53.017Z,1.67
2018-06-20T17:16:26.759Z,1.85
2018-06-20T17:20:00.945Z,2.08
2018-06-20T17:22:34.671Z,1.70
2018-06-20T17:25:08.272Z,1.60
2018-06-20T17:27:37.224Z,1.98
2018-06-20T17:30:06.067Z,1.72
2018-06-20T17:32:34.324Z,1.77
2018-06-20T17:35:02.666Z,1.85
2018-06-20T17:37:31.377Z,1.72
2018-06-20T17:39:59.632Z,1.72
2018-06-20T17:42:28.263Z,1.72
2018-06-20T17:44:56.563Z,1.72
2018-06-20T17:47:24.859Z,2.00
2018-06-20T17:49:53.145Z,1.60
2018-06-20T17:52:21.409Z,1.70
2018-06-20T17:54:49.794Z,1.70
2018-06-20T17:57:18.099Z,1.62
2018-06-20T17:59:46.326Z,1.60
2018-06-20T18:02:14.638Z,1.30
2018-06-20T18:04:49.232Z,1.70
2018-06-20T18:07:23.717Z,1.57
2018-06-20T18:09:57.435Z,1.62
2018-06-20T18:12:31.949Z,1.62
2018-06-20T18:15:05.589Z,1.55
2018-06-20T18:17:33.929Z,1.57
2018-06-20T18:20:02.159Z,1.60
2018-06-20T18:22:30.389Z,1.60
2018-06-20T18:24:58.686Z,1.77
2018-06-20T18:27:28.865Z,1.57
2018-06-20T18:29:57.107Z,1.80
2018-06-20T18:32:25.498Z,1.57
2018-06-20T18:34:53.768Z,1.60
2018-06-20T18:37:22.142Z,1.95
2018-06-20T18:39:55.929Z,1.90
2018-06-20T18:42:24.191Z,1.92
2018-06-20T18:44:52.531Z,1.92
2018-06-20T18:47:26.155Z,1.62
2018-06-20T18:49:54.392Z,1.70
2018-06-20T18:52:22.636Z,2.00
2018-06-20T18:54:50.907Z,1.82
2018-06-20T18:57:24.426Z,1.55
2018-06-20T18:59:57.998Z,1.62
2018-06-20T19:02:31.680Z,1.50
2018-06-20T19:05:05.893Z,1.62
2018-06-20T19:07:39.504Z,1.70
2018-06-20T19:10:08.452Z,1.60
2018-06-20T19:12:37.079Z,1.60
2018-06-20T19:15:05.669Z,1.82
2018-06-20T19:17:34.360Z,1.90
2018-06-20T19:20:02.689Z,1.90
2018-06-20T19:22:30.929Z,2.00
2018-06-20T19:24:59.685Z,1.80
2018-06-20T19:27:27.945Z,2.05
2018-06-20T19:29:56.235Z,2.10
2018-06-20T19:32:24.702Z,2.00
2018-06-20T19:34:52.911Z,1.77
2018-06-20T19:37:21.264Z,2.05
2018-06-20T19:39:50.503Z,2.37
2018-06-20T19:42:20.382Z,2.27
2018-06-20T19:44:48.942Z,1.72
2018-06-20T19:47:17.106Z,2.30
2018-06-20T19:49:45.423Z,2.12
2018-06-20T19:52:14.247Z,2.20
2018-06-20T19:54:43.219Z,2.12
2018-06-20T19:57:11.519Z,2.37
2018-06-20T19:59:39.901Z,2.25
2018-06-20T20:02:08.817Z,2.02
2018-06-20T20:04:37.201Z,2.80
2018-06-20T20:07:06.225Z,2.15
2018-06-20T20:09:34.532Z,2.60
2018-06-20T20:12:02.749Z,2.87
2018-06-20T20:14:30.984Z,2.62
2018-06-20T20:16:59.220Z,2.50
2018-06-20T20:19:27.427Z,2.60
2018-06-20T20:21:55.685Z,2.30
2018-06-20T20:24:23.944Z,2.30
2018-06-20T20:26:52.356Z,2.58
2018-06-20T20:29:20.608Z,2.65
2018-06-20T20:31:48.957Z,2.45
2018-06-20T20:34:17.213Z,2.58
2018-06-20T20:36:45.864Z,3.25
2018-06-20T20:39:14.396Z,6.12
2018-06-20T20:41:42.661Z,4.47
2018-06-20T20:44:11.539Z,3.15
2018-06-20T20:46:40.404Z,2.50
2018-06-20T20:49:08.622Z,2.85
2018-06-20T20:51:36.864Z,3.15
2018-06-20T20:54:05.392Z,3.37
2018-06-20T20:56:33.659Z,2.85
2018-06-20T20:59:02.306Z,2.77
2018-06-20T21:01:30.566Z,3.17
2018-06-20T21:03:58.873Z,2.92
2018-06-20T21:06:27.180Z,2.50
2018-06-20T21:08:55.437Z,2.72
2018-06-20T21:11:24.978Z,3.00
2018-06-20T21:13:53.654Z,2.92
2018-06-20T21:16:21.921Z,2.67
2018-06-20T21:18:50.147Z,2.92
2018-06-20T21:21:18.384Z,4.90
2018-06-20T21:23:46.620Z,4.03
2018-06-20T21:26:14.888Z,2.83
2018-06-20T21:28:43.167Z,2.50
2018-06-20T21:31:11.435Z,2.77
2018-06-20T21:33:39.731Z,2.67
2018-06-20T21:36:07.995Z,2.87
2018-06-20T21:38:36.243Z,2.80
2018-06-20T21:41:04.551Z,2.50
2018-06-20T21:43:33.226Z,3.52
2018-06-20T21:46:01.473Z,3.05
2018-06-20T21:48:29.702Z,2.62
2018-06-20T21:50:57.922Z,3.30
2018-06-20T21:53:26.199Z,3.37
2018-06-20T21:55:54.487Z,3.27
2018-06-20T21:58:23.663Z,2.62
2018-06-20T22:00:51.903Z,3.42
2018-06-20T22:03:20.766Z,3.17
2018-06-20T22:05:49.030Z,3.05
2018-06-20T22:08:17.275Z,2.83
2018-06-20T22:10:45.496Z,3.37
2018-06-20T22:13:17.507Z,2.92
2018-06-20T22:15:45.805Z,2.62
2018-06-20T22:18:14.043Z,3.30
2018-06-20T22:20:42.260Z,3.30
2018-06-20T22:23:10.526Z,2.92
2018-06-20T22:25:38.820Z,3.27
2018-06-20T22:28:07.052Z,3.50
2018-06-20T22:30:35.312Z,3.83
2018-06-20T22:33:03.531Z,3.92
2018-06-20T22:35:31.927Z,3.60
2018-06-20T22:38:00.247Z,3.90
2018-06-20T22:40:28.718Z,3.40
2018-06-20T22:42:57.051Z,3.10
2018-06-20T22:45:26.479Z,3.45
2018-06-20T22:47:54.777Z,3.58
2018-06-20T22:50:23.128Z,3.77
2018-06-20T22:52:51.473Z,3.30
2018-06-20T22:55:19.807Z,3.67
2018-06-20T22:57:48.158Z,4.08
2018-06-20T23:00:16.414Z,3.95
2018-06-20T23:02:44.724Z,3.65
2018-06-20T23:05:14.877Z,3.30
2018-06-20T23:07:43.226Z,3.45
2018-06-20T23:10:11.518Z,3.25
2018-06-20T23:12:40.210Z,3.35
2018-06-20T23:15:09.204Z,3.15
2018-06-20T23:17:37.551Z,3.40
2018-06-20T23:20:06.641Z,3.47
2018-06-20T23:22:34.985Z,3.65
2018-06-20T23:25:03.333Z,3.98
2018-06-20T23:27:32.069Z,4.67
2018-06-20T23:30:00.850Z,4.10
2018-06-20T23:32:29.152Z,3.77
2018-06-20T23:34:57.463Z,3.70
2018-06-20T23:37:25.803Z,3.95
2018-06-20T23:39:54.098Z,4.00
2018-06-20T23:42:22.414Z,3.95
2018-06-20T23:44:50.722Z,3.60
2018-06-20T23:47:19.014Z,4.00
2018-06-20T23:49:47.819Z,4.15
2018-06-20T23:52:16.128Z,4.17
2018-06-20T23:54:44.859Z,3.75
2018-06-20T23:57:13.602Z,3.73
2018-06-20T23:59:41.611Z,4.20
